Time;durP1;ratioP1;P1;durP2;ratioP2;P2;SDS_P1;SDS_P2;PMS_P1;PMS_P2;Temp;Humidity;BMP_temperature;BMP_pressure;BME280_temperature;BME280_humidity;BME280_pressure;Samples;Min_cycle;Max_cycle;Signal;HPM_P1;HPM_P2
2022/04/28 00:02:09;;;;;;;3.10;2.85;;;;;;;;;;5028532;28;20099;-58
2022/04/28 00:04:34;;;;;;;3.45;2.90;;;;;;;;;;5030601;28;20082;-53
2022/04/28 00:06:59;;;;;;;3.30;2.92;;;;;;;;;;5027493;28;20110;-55
2022/04/28 00:09:25;;;;;;;6.03;2.95;;;;;;;;;;5028328;28;20030;-54
2022/04/28 00:11:51;;;;;;;7.40;2.70;;;;;;;;;;5010315;28;20057;-55
2022/04/28 00:14:17;;;;;;;4.55;3.20;;;;;;;;;;5028014;28;20057;-55
2022/04/28 00:16:42;;;;;;;8.38;3.13;;;;;;;;;;5028072;28;20340;-56
2022/04/28 00:19:08;;;;;;;4.80;3.05;;;;;;;;;;5027939;28;20065;-54
2022/04/28 00:21:33;;;;;;;5.40;3.20;;;;;;;;;;5025154;28;20115;-55
2022/04/28 00:23:59;;;;;;;4.32;3.17;;;;;;;;;;5017874;28;20531;-56
2022/04/28 00:26:24;;;;;;;4.30;3.00;;;;;;;;;;5022661;28;20054;-58
2022/04/28 00:28:50;;;;;;;3.17;2.88;;;;;;;;;;5025393;28;20121;-50
2022/04/28 00:31:15;;;;;;;4.38;2.75;;;;;;;;;;5026349;28;20049;-57
2022/04/28 00:33:41;;;;;;;4.45;3.25;;;;;;;;;;5023085;28;20446;-54
2022/04/28 00:36:07;;;;;;;3.90;2.88;;;;;;;;;;5025561;28;20183;-56
2022/04/28 00:38:33;;;;;;;5.20;2.80;;;;;;;;;;5027662;28;20049;-54
2022/04/28 00:40:59;;;;;;;4.78;3.35;;;;;;;;;;5025831;28;20152;-58
2022/04/28 00:43:28;;;;;;;4.80;3.00;;;;;;;;;;5024661;28;20038;-56
2022/04/28 00:45:54;;;;;;;3.72;2.85;;;;;;;;;;5027248;28;20025;-59
2022/04/28 00:51:05;;;;;;;4.43;2.95;;;;;;;;;;5019465;28;20044;-56
2022/04/28 00:53:34;;;;;;;5.03;3.20;;;;;;;;;;5020075;28;20724;-55
2022/04/28 00:56:00;;;;;;;7.00;3.17;;;;;;;;;;5023295;28;20050;-56
2022/04/28 00:58:27;;;;;;;4.43;3.20;;;;;;;;;;5027350;28;20471;-56
2022/04/28 01:00:53;;;;;;;5.43;3.47;;;;;;;;;;5028335;28;20037;-57
2022/04/28 01:03:20;;;;;;;5.03;3.17;;;;;;;;;;5027951;28;20038;-60
2022/04/28 01:05:46;;;;;;;5.93;3.42;;;;;;;;;;5027688;28;20053;-58
2022/04/28 01:08:11;;;;;;;4.55;3.35;;;;;;;;;;5027932;28;20053;-54
2022/04/28 01:10:37;;;;;;;4.25;3.45;;;;;;;;;;5027742;28;20037;-57
2022/04/28 01:13:06;;;;;;;5.40;3.55;;;;;;;;;;5021382;28;20059;-57
2022/04/28 01:15:45;;;;;;;4.15;3.38;;;;;;;;;;5025066;28;20215;-55
2022/04/28 01:18:10;;;;;;;7.85;3.55;;;;;;;;;;5013967;28;20058;-56
2022/04/28 01:20:36;;;;;;;5.57;3.08;;;;;;;;;;5020694;28;20100;-59
2022/04/28 01:23:04;;;;;;;4.35;3.50;;;;;;;;;;5026422;28;20096;-56
2022/04/28 01:25:29;;;;;;;7.05;3.65;;;;;;;;;;5019362;28;20675;-54
2022/04/28 01:27:56;;;;;;;7.32;3.60;;;;;;;;;;5025604;28;20200;-56
2022/04/28 01:30:22;;;;;;;3.85;3.42;;;;;;;;;;5025168;28;20343;-56
2022/04/28 01:32:47;;;;;;;3.92;2.72;;;;;;;;;;5024764;28;20084;-57
2022/04/28 01:35:13;;;;;;;4.63;3.28;;;;;;;;;;5020193;28;20057;-56
2022/04/28 01:37:38;;;;;;;4.97;3.45;;;;;;;;;;5022752;28;20061;-53
2022/04/28 01:40:08;;;;;;;4.18;3.22;;;;;;;;;;5026386;28;20049;-56
2022/04/28 01:42:34;;;;;;;6.97;3.67;;;;;;;;;;5024395;28;20068;-58
2022/04/28 01:44:59;;;;;;;7.15;3.55;;;;;;;;;;5024371;28;20069;-57
2022/04/28 01:47:25;;;;;;;6.05;3.40;;;;;;;;;;5026295;28;20498;-55
2022/04/28 01:49:50;;;;;;;5.57;3.30;;;;;;;;;;5023561;28;20351;-53
2022/04/28 01:54:59;;;;;;;;;;;;;;;;;;5027057;28;20049;-56
2022/04/28 01:57:29;;;;;;;5.45;3.30;;;;;;;;;;5018857;28;20299;-58
2022/04/28 01:59:57;;;;;;;6.65;3.53;;;;;;;;;;5023973;28;20368;-59
2022/04/28 02:02:23;;;;;;;3.50;3.20;;;;;;;;;;5026319;28;20451;-54
2022/04/28 02:04:49;;;;;;;4.45;3.40;;;;;;;;;;5026646;28;20040;-56
2022/04/28 02:07:15;;;;;;;6.75;3.63;;;;;;;;;;5026334;28;20372;-54
2022/04/28 02:09:43;;;;;;;4.32;3.40;;;;;;;;;;5025982;28;20682;-57
2022/04/28 02:12:10;;;;;;;4.10;3.30;;;;;;;;;;5028905;28;20052;-57
2022/04/28 02:14:36;;;;;;;5.63;3.60;;;;;;;;;;5031349;28;20074;-52
2022/04/28 02:17:04;;;;;;;4.60;3.88;;;;;;;;;;5031433;28;20043;-52
2022/04/28 02:19:30;;;;;;;4.20;3.53;;;;;;;;;;5029947;28;20080;-53
2022/04/28 02:21:55;;;;;;;4.93;3.40;;;;;;;;;;5027449;28;20135;-58
2022/04/28 02:24:21;;;;;;;5.47;3.53;;;;;;;;;;5028228;28;20084;-56
2022/04/28 02:26:46;;;;;;;5.70;3.42;;;;;;;;;;5025693;28;20042;-57
2022/04/28 02:29:12;;;;;;;4.70;3.42;;;;;;;;;;5029428;28;20025;-58
2022/04/28 02:31:38;;;;;;;4.55;3.40;;;;;;;;;;5030098;28;20037;-57
2022/04/28 02:34:03;;;;;;;5.45;3.47;;;;;;;;;;5027931;28;20049;-56
2022/04/28 02:36:28;;;;;;;5.07;3.72;;;;;;;;;;5028476;28;20073;-57
2022/04/28 02:38:54;;;;;;;5.43;3.80;;;;;;;;;;5029293;28;20150;-57
2022/04/28 02:41:20;;;;;;;4.32;3.65;;;;;;;;;;5029514;28;20063;-57
2022/04/28 02:43:50;;;;;;;5.50;3.47;;;;;;;;;;5026579;28;20386;-56
2022/04/28 02:46:23;;;;;;;5.63;3.40;;;;;;;;;;5030605;28;20049;-55
2022/04/28 02:48:49;;;;;;;6.05;3.47;;;;;;;;;;5027960;28;20091;-55
2022/04/28 02:51:15;;;;;;;7.72;3.50;;;;;;;;;;5027438;28;20617;-54
2022/04/28 02:53:41;;;;;;;4.55;3.47;;;;;;;;;;5027291;28;20045;-57
2022/04/28 02:56:07;;;;;;;8.77;4.28;;;;;;;;;;5027912;28;20370;-54
2022/04/28 02:58:34;;;;;;;7.38;3.38;;;;;;;;;;5028236;28;20049;-56
2022/04/28 03:01:03;;;;;;;8.50;4.15;;;;;;;;;;5030718;28;20077;-56
2022/04/28 03:03:29;;;;;;;7.25;3.15;;;;;;;;;;5029491;28;20144;-53
2022/04/28 03:11:23;;;;;;;5.63;3.67;;;;;;;;;;5029099;28;20178;-56
2022/04/28 03:13:49;;;;;;;7.07;3.67;;;;;;;;;;5029233;28;20120;-56
2022/04/28 03:16:15;;;;;;;6.07;3.65;;;;;;;;;;5025726;28;20056;-57
2022/04/28 03:18:41;;;;;;;5.90;3.70;;;;;;;;;;5026793;28;20037;-52
2022/04/28 03:21:06;;;;;;;5.82;3.60;;;;;;;;;;5026875;28;20077;-52
2022/04/28 03:23:32;;;;;;;4.68;3.70;;;;;;;;;;5028252;28;20130;-54
2022/04/28 03:25:57;;;;;;;5.45;3.83;;;;;;;;;;5057958;28;20025;-55
2022/04/28 03:28:23;;;;;;;5.30;3.60;;;;;;;;;;5027670;28;20054;-53
2022/04/28 03:30:49;;;;;;;5.03;3.53;;;;;;;;;;5028940;28;20540;-54
2022/04/28 03:33:16;;;;;;;6.15;3.70;;;;;;;;;;5027963;28;20053;-52
2022/04/28 03:35:44;;;;;;;5.53;3.50;;;;;;;;;;5029668;28;20042;-55
2022/04/28 03:38:11;;;;;;;5.55;4.07;;;;;;;;;;5029094;28;20391;-55
2022/04/28 03:40:38;;;;;;;6.45;3.63;;;;;;;;;;5026176;28;20507;-49
2022/04/28 03:43:04;;;;;;;5.35;3.88;;;;;;;;;;5025952;28;20046;-54
2022/04/28 03:45:30;;;;;;;8.27;3.75;;;;;;;;;;5028056;28;20053;-55
2022/04/28 03:47:56;;;;;;;4.07;3.65;;;;;;;;;;5028047;28;20088;-55
2022/04/28 03:50:21;;;;;;;4.63;3.47;;;;;;;;;;5027616;28;20076;-56
2022/04/28 03:52:46;;;;;;;4.38;3.50;;;;;;;;;;5028336;28;20057;-57
2022/04/28 03:55:12;;;;;;;5.53;3.65;;;;;;;;;;5026643;28;20159;-56
2022/04/28 03:57:37;;;;;;;7.60;3.83;;;;;;;;;;5027206;28;20052;-56
2022/04/28 04:00:07;;;;;;;5.25;3.20;;;;;;;;;;5027771;28;20096;-56
2022/04/28 04:02:32;;;;;;;5.40;3.70;;;;;;;;;;5028038;28;20072;-58
2022/04/28 04:04:58;;;;;;;6.18;4.05;;;;;;;;;;5028666;28;20054;-55
2022/04/28 04:07:28;;;;;;;6.25;3.58;;;;;;;;;;5028364;28;20054;-54
2022/04/28 04:09:54;;;;;;;5.55;3.92;;;;;;;;;;5026910;28;20060;-54
2022/04/28 04:12:19;;;;;;;6.53;3.70;;;;;;;;;;5025894;28;20061;-55
2022/04/28 04:14:44;;;;;;;4.70;3.67;;;;;;;;;;5027390;28;20403;-55
2022/04/28 04:17:10;;;;;;;6.40;3.58;;;;;;;;;;5023345;28;20141;-56
2022/04/28 04:19:35;;;;;;;7.97;3.72;;;;;;;;;;5028311;28;20124;-56
2022/04/28 04:22:00;;;;;;;8.73;3.90;;;;;;;;;;5027202;28;20056;-54
2022/04/28 04:24:27;;;;;;;6.78;4.35;;;;;;;;;;5025269;28;20439;-55
2022/04/28 04:26:53;;;;;;;7.20;4.03;;;;;;;;;;5024986;28;20052;-53
2022/04/28 04:29:18;;;;;;;5.07;3.78;;;;;;;;;;5028477;28;20037;-57
2022/04/28 04:34:28;;;;;;;6.55;4.00;;;;;;;;;;5023813;28;20106;-54
2022/04/28 04:36:53;;;;;;;8.13;4.88;;;;;;;;;;5026776;28;20128;-53
2022/04/28 04:39:18;;;;;;;7.47;4.85;;;;;;;;;;5027980;28;20258;-53
2022/04/28 04:41:44;;;;;;;7.70;4.82;;;;;;;;;;5026062;28;20076;-56
2022/04/28 04:44:13;;;;;;;7.45;4.57;;;;;;;;;;5028095;28;20417;-55
2022/04/28 04:46:42;;;;;;;8.57;5.38;;;;;;;;;;5021311;28;20045;-55
2022/04/28 04:49:08;;;;;;;8.80;5.15;;;;;;;;;;5024833;28;20041;-54
2022/04/28 04:51:34;;;;;;;9.13;5.47;;;;;;;;;;5026964;28;20203;-51
2022/04/28 04:53:59;;;;;;;9.50;5.68;;;;;;;;;;5027068;28;20041;-56
2022/04/28 04:56:25;;;;;;;8.05;5.03;;;;;;;;;;5026562;28;20036;-56
2022/04/28 04:58:50;;;;;;;15.63;5.35;;;;;;;;;;5024718;28;20337;-54
2022/04/28 05:01:16;;;;;;;9.93;5.05;;;;;;;;;;5024202;28;20042;-56
2022/04/28 05:03:41;;;;;;;9.48;4.78;;;;;;;;;;5022787;28;20154;-52
2022/04/28 05:06:07;;;;;;;8.73;4.68;;;;;;;;;;5024704;28;20045;-53
2022/04/28 05:08:33;;;;;;;8.57;4.55;;;;;;;;;;5023823;28;20025;-55
2022/04/28 05:10:58;;;;;;;5.88;4.68;;;;;;;;;;5024997;28;20052;-54
2022/04/28 05:13:24;;;;;;;8.43;4.40;;;;;;;;;;5024539;28;20452;-56
2022/04/28 05:15:49;;;;;;;9.48;4.65;;;;;;;;;;5020944;28;20042;-55
2022/04/28 05:18:15;;;;;;;8.25;5.22;;;;;;;;;;5024833;28;20045;-61
2022/04/28 05:20:40;;;;;;;10.27;5.38;;;;;;;;;;5026890;28;20069;-62
2022/04/28 05:23:06;;;;;;;8.73;4.68;;;;;;;;;;5026597;28;20099;-61
2022/04/28 05:25:31;;;;;;;6.72;4.40;;;;;;;;;;5027565;28;20077;-62
2022/04/28 05:27:57;;;;;;;6.15;4.20;;;;;;;;;;5025978;28;20072;-62
2022/04/28 05:30:23;;;;;;;5.13;3.83;;;;;;;;;;5029515;28;20064;-60
2022/04/28 05:32:48;;;;;;;6.88;4.22;;;;;;;;;;5027345;28;20072;-62
2022/04/28 05:35:15;;;;;;;12.60;4.63;;;;;;;;;;5027650;28;20458;-62
2022/04/28 05:37:40;;;;;;;5.50;4.05;;;;;;;;;;5024288;28;20171;-62
2022/04/28 05:40:07;;;;;;;8.43;5.13;;;;;;;;;;5026995;28;20497;-62
2022/04/28 05:48:02;;;;;;;7.18;5.45;;;;;;;;;;5030017;28;20573;-61
2022/04/28 05:50:28;;;;;;;7.22;5.43;;;;;;;;;;5031916;28;20036;-62
2022/04/28 05:52:53;;;;;;;7.85;5.40;;;;;;;;;;5029239;28;20108;-62
2022/04/28 05:55:19;;;;;;;7.68;5.65;;;;;;;;;;5029824;28;20041;-62
2022/04/28 05:57:44;;;;;;;8.00;5.55;;;;;;;;;;5028176;28;20344;-61
2022/04/28 06:00:10;;;;;;;10.73;6.60;;;;;;;;;;5027411;28;20123;-62
2022/04/28 06:02:37;;;;;;;10.32;6.22;;;;;;;;;;5032828;28;20060;-62
2022/04/28 06:05:03;;;;;;;9.95;6.07;;;;;;;;;;5029497;28;20029;-59
2022/04/28 06:07:29;;;;;;;8.02;5.65;;;;;;;;;;5033636;28;20061;-63
2022/04/28 06:09:54;;;;;;;9.88;6.30;;;;;;;;;;5029614;28;20042;-63
2022/04/28 06:12:20;;;;;;;11.23;6.00;;;;;;;;;;5029879;28;20380;-63
2022/04/28 06:14:48;;;;;;;7.28;6.15;;;;;;;;;;5028455;28;20050;-62
2022/04/28 06:17:13;;;;;;;6.78;5.72;;;;;;;;;;5026945;28;20022;-63
2022/04/28 06:19:39;;;;;;;8.40;6.50;;;;;;;;;;5029925;28;20064;-66
2022/04/28 06:22:04;;;;;;;12.50;6.13;;;;;;;;;;5026594;28;20494;-65
2022/04/28 06:24:30;;;;;;;9.80;5.72;;;;;;;;;;5027921;28;20473;-67
2022/04/28 06:26:55;;;;;;;7.97;5.65;;;;;;;;;;5029198;28;20037;-61
2022/04/28 06:29:21;;;;;;;7.68;5.65;;;;;;;;;;5026660;28;20033;-64
2022/04/28 06:31:46;;;;;;;9.10;5.47;;;;;;;;;;5031711;28;20026;-65
2022/04/28 06:34:11;;;;;;;10.48;6.75;;;;;;;;;;5026502;28;20038;-61
2022/04/28 06:36:37;;;;;;;14.73;7.32;;;;;;;;;;5029477;28;20360;-62
2022/04/28 06:39:03;;;;;;;10.80;6.85;;;;;;;;;;5030580;28;20049;-62
2022/04/28 06:41:28;;;;;;;11.02;7.43;;;;;;;;;;5026491;28;20033;-63
2022/04/28 06:43:55;;;;;;;11.32;7.18;;;;;;;;;;5030523;28;20051;-64
2022/04/28 06:46:21;;;;;;;11.68;7.03;;;;;;;;;;5030051;28;20042;-62
2022/04/28 06:48:47;;;;;;;14.10;7.05;;;;;;;;;;5028207;28;20479;-61
2022/04/28 06:51:13;;;;;;;10.13;7.72;;;;;;;;;;5030430;28;20045;-61
2022/04/28 06:53:39;;;;;;;11.32;6.82;;;;;;;;;;5030194;28;20041;-61
2022/04/28 06:56:06;;;;;;;11.85;7.35;;;;;;;;;;5029115;28;20112;-61
2022/04/28 06:58:31;;;;;;;11.98;7.57;;;;;;;;;;5030282;28;20053;-60
2022/04/28 07:00:57;;;;;;;18.00;7.63;;;;;;;;;;5027280;28;20464;-60
2022/04/28 07:03:23;;;;;;;11.30;7.72;;;;;;;;;;5029361;28;20060;-61
2022/04/28 07:05:49;;;;;;;15.23;7.47;;;;;;;;;;5028724;28;20053;-61
2022/04/28 07:08:14;;;;;;;12.50;7.15;;;;;;;;;;5029246;28;20561;-61
2022/04/28 07:10:40;;;;;;;9.13;6.88;;;;;;;;;;5028808;28;20456;-62
2022/04/28 07:13:06;;;;;;;14.30;6.95;;;;;;;;;;5024316;28;20083;-61
2022/04/28 07:15:35;;;;;;;9.93;6.60;;;;;;;;;;5026812;28;20053;-61
2022/04/28 07:18:03;;;;;;;11.48;6.82;;;;;;;;;;5028129;28;20053;-60
2022/04/28 07:20:32;;;;;;;12.55;7.05;;;;;;;;;;5029146;28;20065;-61
2022/04/28 07:22:59;;;;;;;9.95;7.03;;;;;;;;;;5027983;28;20025;-61
2022/04/28 07:25:29;;;;;;;10.25;7.00;;;;;;;;;;5028281;28;20175;-61
2022/04/28 07:27:55;;;;;;;11.48;7.30;;;;;;;;;;5026471;28;20045;-61
2022/04/28 07:30:21;;;;;;;11.75;7.25;;;;;;;;;;5029419;28;20053;-61
2022/04/28 07:32:48;;;;;;;11.70;7.00;;;;;;;;;;5027057;28;20092;-61
2022/04/28 07:35:14;;;;;;;10.15;7.03;;;;;;;;;;5030147;28;20061;-61
2022/04/28 07:37:39;;;;;;;10.90;7.22;;;;;;;;;;5029471;28;20056;-62
2022/04/28 07:40:05;;;;;;;11.13;6.93;;;;;;;;;;5029101;28;20045;-60
2022/04/28 07:42:33;;;;;;;10.68;6.70;;;;;;;;;;5024376;28;20041;-63
2022/04/28 07:44:59;;;;;;;9.32;7.00;;;;;;;;;;5024554;28;20505;-63
2022/04/28 07:47:26;;;;;;;10.13;6.97;;;;;;;;;;5025339;28;20112;-62
2022/04/28 07:49:52;;;;;;;14.30;7.22;;;;;;;;;;5025555;28;20098;-60
2022/04/28 07:52:17;;;;;;;11.07;6.97;;;;;;;;;;5026299;28;20144;-60
2022/04/28 07:54:43;;;;;;;10.95;6.80;;;;;;;;;;5027890;28;20075;-61
2022/04/28 07:57:08;;;;;;;15.02;7.60;;;;;;;;;;5029032;28;20083;-61
2022/04/28 07:59:34;;;;;;;16.23;7.07;;;;;;;;;;5054986;28;20032;-61
2022/04/28 08:02:03;;;;;;;14.25;6.90;;;;;;;;;;5026741;28;20068;-61
2022/04/28 08:04:29;;;;;;;11.43;6.47;;;;;;;;;;5029153;28;20111;-60
2022/04/28 08:06:54;;;;;;;17.83;6.65;;;;;;;;;;5025183;28;20675;-62
2022/04/28 08:09:19;;;;;;;14.57;6.43;;;;;;;;;;5026802;28;20052;-59
2022/04/28 08:11:45;;;;;;;11.57;6.35;;;;;;;;;;5029272;28;20075;-59
2022/04/28 08:14:10;;;;;;;11.30;5.57;;;;;;;;;;5028738;28;20358;-60
2022/04/28 08:16:36;;;;;;;11.82;5.78;;;;;;;;;;5021291;28;20046;-61
2022/04/28 08:19:02;;;;;;;12.30;6.18;;;;;;;;;;5026816;28;20072;-59
2022/04/28 08:21:28;;;;;;;15.00;5.53;;;;;;;;;;5026637;28;20084;-61
2022/04/28 08:23:53;;;;;;;13.82;5.75;;;;;;;;;;5026561;28;20041;-61
2022/04/28 08:26:19;;;;;;;12.85;5.90;;;;;;;;;;5023821;28;20396;-61
2022/04/28 08:28:44;;;;;;;10.57;5.65;;;;;;;;;;5027088;28;20033;-60
2022/04/28 08:31:10;;;;;;;11.88;5.80;;;;;;;;;;5025575;28;20053;-61
2022/04/28 08:33:35;;;;;;;14.13;5.78;;;;;;;;;;5025146;28;20384;-60
2022/04/28 08:36:00;;;;;;;9.40;5.30;;;;;;;;;;5028177;28;20050;-61
2022/04/28 08:38:27;;;;;;;14.38;5.32;;;;;;;;;;5028020;28;20380;-61
2022/04/28 08:41:00;;;;;;;15.75;5.90;;;;;;;;;;5028769;28;20026;-61
2022/04/28 08:43:28;;;;;;;17.10;6.70;;;;;;;;;;5027486;28;20053;-61
2022/04/28 08:48:50;;;;;;;11.60;5.90;;;;;;;;;;5026165;28;20437;-61
2022/04/28 08:51:18;;;;;;;9.10;5.50;;;;;;;;;;5022047;28;20049;-60
2022/04/28 08:53:46;;;;;;;10.73;5.38;;;;;;;;;;5023130;28;20065;-60
2022/04/28 08:56:11;;;;;;;11.10;5.28;;;;;;;;;;5028113;28;20260;-58
2022/04/28 08:58:38;;;;;;;9.93;5.55;;;;;;;;;;5027056;28;20128;-59
2022/04/28 09:01:03;;;;;;;12.85;5.07;;;;;;;;;;5023360;28;20340;-60
2022/04/28 09:03:28;;;;;;;10.63;4.93;;;;;;;;;;5022774;28;20050;-60
2022/04/28 09:05:55;;;;;;;14.00;5.10;;;;;;;;;;5021823;28;20460;-59
2022/04/28 09:08:20;;;;;;;18.75;7.32;;;;;;;;;;5022870;28;20036;-60
2022/04/28 09:10:46;;;;;;;11.20;5.22;;;;;;;;;;5023930;28;20108;-60
2022/04/28 09:15:56;;;;;;;6.75;5.07;;;;;;;;;;5026435;28;20512;-59
2022/04/28 09:18:22;;;;;;;8.70;4.97;;;;;;;;;;5027260;28;20160;-59
2022/04/28 09:20:49;;;;;;;10.95;5.18;;;;;;;;;;5030710;28;20048;-60
2022/04/28 09:23:16;;;;;;;8.95;5.30;;;;;;;;;;5027369;28;20033;-61
2022/04/28 09:25:42;;;;;;;7.05;5.07;;;;;;;;;;5028630;28;20168;-61
2022/04/28 09:28:10;;;;;;;8.65;5.75;;;;;;;;;;5029952;28;20128;-63
2022/04/28 09:30:42;;;;;;;9.70;5.38;;;;;;;;;;5031746;28;20061;-61
2022/04/28 09:33:13;;;;;;;8.48;4.97;;;;;;;;;;5029178;28;20131;-61
2022/04/28 09:35:50;;;;;;;6.55;4.80;;;;;;;;;;5027952;28;20065;-60
2022/04/28 09:38:16;;;;;;;8.43;5.28;;;;;;;;;;5028569;28;20037;-62
2022/04/28 09:43:34;;;;;;;8.55;4.13;;;;;;;;;;5026607;28;20056;-61
2022/04/28 09:46:01;;;;;;;5.70;3.92;;;;;;;;;;5026383;28;20446;-61
2022/04/28 09:48:29;;;;;;;7.20;3.45;;;;;;;;;;5030698;28;20042;-60
2022/04/28 09:51:06;;;;;;;6.07;3.25;;;;;;;;;;5029240;28;20411;-61
2022/04/28 09:53:35;;;;;;;8.20;2.63;;;;;;;;;;5028644;28;20169;-61
2022/04/28 09:56:02;;;;;;;4.15;2.60;;;;;;;;;;5030272;28;20476;-61
2022/04/28 09:58:28;;;;;;;6.20;2.60;;;;;;;;;;5029147;28;20052;-61
2022/04/28 10:01:00;;;;;;;3.30;2.70;;;;;;;;;;5027141;28;20144;-61
2022/04/28 10:03:28;;;;;;;2.83;2.33;;;;;;;;;;5030707;28;20061;-61
2022/04/28 10:05:55;;;;;;;4.65;2.83;;;;;;;;;;5029724;28;20056;-61
2022/04/28 10:08:21;;;;;;;6.88;2.33;;;;;;;;;;5028332;28;20337;-61
2022/04/28 10:10:48;;;;;;;3.85;2.20;;;;;;;;;;5030493;28;20037;-61
2022/04/28 10:13:15;;;;;;;4.97;2.42;;;;;;;;;;5028020;28;20038;-60
2022/04/28 10:15:41;;;;;;;8.35;1.75;;;;;;;;;;5028828;28;20375;-60
2022/04/28 10:18:12;;;;;;;6.80;2.72;;;;;;;;;;5030883;28;20045;-59
2022/04/28 10:20:42;;;;;;;10.70;3.42;;;;;;;;;;5027365;28;20074;-60
2022/04/28 10:23:11;;;;;;;4.90;2.75;;;;;;;;;;5024771;28;20124;-61
2022/04/28 10:34:19;;;;;;;5.50;2.70;;;;;;;;;;5024753;28;20244;-60
2022/04/28 10:36:59;;;;;;;5.35;2.72;;;;;;;;;;5021099;28;20049;-60
2022/04/28 10:39:54;;;;;;;3.38;2.50;;;;;;;;;;5026685;28;20108;-61
2022/04/28 10:42:44;;;;;;;4.40;2.38;;;;;;;;;;5025287;28;20459;-60
2022/04/28 10:45:37;;;;;;;5.25;2.70;;;;;;;;;;5027418;28;20056;-59
2022/04/28 10:48:22;;;;;;;4.18;1.80;;;;;;;;;;5028927;28;20049;-61
2022/04/28 10:51:14;;;;;;;3.30;1.75;;;;;;;;;;5026414;28;20045;-61
2022/04/28 10:54:21;;;;;;;4.75;2.38;;;;;;;;;;5041005;28;20429;-60
2022/04/28 10:56:48;;;;;;;3.60;1.90;;;;;;;;;;5025049;28;20471;-61
2022/04/28 10:59:29;;;;;;;10.20;2.45;;;;;;;;;;5024715;28;20030;-60
2022/04/28 11:02:19;;;;;;;3.95;2.10;;;;;;;;;;5028747;28;20060;-61
2022/04/28 11:04:52;;;;;;;2.97;2.30;;;;;;;;;;5025455;28;20158;-60
2022/04/28 11:07:20;;;;;;;4.97;2.13;;;;;;;;;;5029163;28;20053;-60
2022/04/28 11:09:55;;;;;;;3.13;2.20;;;;;;;;;;5026923;28;20099;-60
2022/04/28 11:12:22;;;;;;;5.32;1.80;;;;;;;;;;5022765;28;20050;-61
2022/04/28 11:14:52;;;;;;;5.38;2.53;;;;;;;;;;5028402;28;20417;-62
2022/04/28 11:17:21;;;;;;;3.28;1.98;;;;;;;;;;5028270;28;20037;-61
2022/04/28 11:19:46;;;;;;;2.20;1.90;;;;;;;;;;5028457;28;20079;-61
2022/04/28 11:22:13;;;;;;;4.88;2.10;;;;;;;;;;5028846;28;20054;-59
2022/04/28 11:24:42;;;;;;;2.78;2.13;;;;;;;;;;5027998;28;20426;-60
2022/04/28 11:27:08;;;;;;;2.67;2.17;;;;;;;;;;5023905;28;20034;-61
2022/04/28 11:29:39;;;;;;;2.42;2.00;;;;;;;;;;5027644;28;20025;-61
2022/04/28 11:32:08;;;;;;;4.38;2.35;;;;;;;;;;5028765;28;20030;-61
2022/04/28 11:34:34;;;;;;;5.38;1.90;;;;;;;;;;5025913;28;20391;-62
2022/04/28 11:37:25;;;;;;;5.80;1.95;;;;;;;;;;5009124;28;20060;-61
2022/04/28 11:39:52;;;;;;;3.15;2.42;;;;;;;;;;5025741;28;20084;-61
2022/04/28 11:42:18;;;;;;;4.60;2.10;;;;;;;;;;5026155;28;20085;-60
2022/04/28 11:44:53;;;;;;;5.15;2.50;;;;;;;;;;5028969;28;20128;-60
2022/04/28 11:47:27;;;;;;;3.40;2.40;;;;;;;;;;5023235;28;20124;-59
2022/04/28 11:50:22;;;;;;;6.57;2.50;;;;;;;;;;5029250;28;20431;-62
2022/04/28 11:53:12;;;;;;;3.53;2.30;;;;;;;;;;5025405;28;20076;-59
2022/04/28 11:55:40;;;;;;;5.55;2.40;;;;;;;;;;5023550;28;20495;-60
2022/04/28 11:58:08;;;;;;;6.10;2.88;;;;;;;;;;5027052;28;20149;-62
2022/04/28 12:00:46;;;;;;;3.10;2.30;;;;;;;;;;5027461;28;20103;-60
2022/04/28 12:03:25;;;;;;;4.03;2.83;;;;;;;;;;5025669;28;20100;-61
2022/04/28 12:05:52;;;;;;;5.60;2.42;;;;;;;;;;5026367;28;20099;-60
2022/04/28 12:08:24;;;;;;;2.65;2.42;;;;;;;;;;5027448;28;20025;-61
2022/04/28 12:16:23;;;;;;;4.43;2.90;;;;;;;;;;5027952;28;20056;-61
2022/04/28 12:21:33;;;;;;;8.88;2.97;;;;;;;;;;5025643;28;20125;-60
2022/04/28 12:24:00;;;;;;;5.20;2.50;;;;;;;;;;5024339;28;20084;-61
2022/04/28 12:26:31;;;;;;;4.35;2.50;;;;;;;;;;5027139;28;20117;-60
2022/04/28 12:29:08;;;;;;;3.25;2.28;;;;;;;;;;5027144;28;20037;-61
2022/04/28 12:31:34;;;;;;;3.08;2.75;;;;;;;;;;5026357;28;20040;-59
2022/04/28 12:34:19;;;;;;;2.88;2.50;;;;;;;;;;5026007;28;20068;-61
2022/04/28 12:36:55;;;;;;;4.95;2.67;;;;;;;;;;5024369;28;20049;-61
2022/04/28 12:39:21;;;;;;;3.28;2.78;;;;;;;;;;5022696;28;20103;-61
2022/04/28 12:41:48;;;;;;;2.60;2.33;;;;;;;;;;5024817;28;20423;-61
2022/04/28 12:44:14;;;;;;;2.88;2.28;;;;;;;;;;5026779;28;20025;-60
2022/04/28 12:46:44;;;;;;;2.78;2.50;;;;;;;;;;5022745;28;20455;-60
2022/04/28 12:49:11;;;;;;;7.55;2.40;;;;;;;;;;5022371;28;20037;-61
2022/04/28 12:51:56;;;;;;;3.53;2.45;;;;;;;;;;5054524;28;20200;-61
2022/04/28 12:54:36;;;;;;;2.70;2.42;;;;;;;;;;5025532;28;20444;-60
2022/04/28 12:57:06;;;;;;;3.92;2.53;;;;;;;;;;5027574;28;20049;-61
2022/04/28 12:59:37;;;;;;;2.97;2.35;;;;;;;;;;5027524;28;20033;-62
2022/04/28 13:02:06;;;;;;;2.90;2.30;;;;;;;;;;5025431;28;20033;-61
2022/04/28 13:04:37;;;;;;;4.20;2.67;;;;;;;;;;5020846;28;20061;-61
2022/04/28 13:07:05;;;;;;;3.47;2.42;;;;;;;;;;5027594;28;20056;-61
2022/04/28 13:09:31;;;;;;;4.10;2.08;;;;;;;;;;5024715;28;20108;-61
2022/04/28 13:11:56;;;;;;;2.78;2.30;;;;;;;;;;5026956;28;20459;-61
2022/04/28 13:14:22;;;;;;;5.82;2.65;;;;;;;;;;5027798;28;20041;-62
2022/04/28 13:16:50;;;;;;;3.55;2.70;;;;;;;;;;5027043;28;20331;-61
2022/04/28 13:19:18;;;;;;;5.38;2.55;;;;;;;;;;5023567;28;20063;-61
2022/04/28 13:21:44;;;;;;;3.63;2.53;;;;;;;;;;5025261;28;20097;-62
2022/04/28 13:24:09;;;;;;;33.10;5.25;;;;;;;;;;5026935;28;20152;-62
2022/04/28 13:26:35;;;;;;;9.93;2.80;;;;;;;;;;5028316;28;20128;-61
2022/04/28 13:29:01;;;;;;;3.42;2.40;;;;;;;;;;5025188;28;20623;-61
2022/04/28 13:31:28;;;;;;;2.78;2.33;;;;;;;;;;5025196;28;20063;-61
2022/04/28 13:33:54;;;;;;;5.05;2.30;;;;;;;;;;5025878;28;20140;-61
2022/04/28 13:36:20;;;;;;;4.50;2.35;;;;;;;;;;5026520;28;20049;-61
2022/04/28 13:38:46;;;;;;;2.85;2.20;;;;;;;;;;5026597;28;20145;-61
2022/04/28 13:41:13;;;;;;;2.40;2.15;;;;;;;;;;5028578;28;20113;-64
2022/04/28 13:43:39;;;;;;;4.57;2.13;;;;;;;;;;5026346;28;20041;-61
2022/04/28 13:46:09;;;;;;;2.35;1.92;;;;;;;;;;5026068;28;20045;-61
2022/04/28 13:48:36;;;;;;;2.63;2.30;;;;;;;;;;5025466;28;20053;-62
2022/04/28 13:51:03;;;;;;;11.95;2.38;;;;;;;;;;5025498;28;20049;-63
2022/04/28 13:53:29;;;;;;;5.07;2.33;;;;;;;;;;5025253;28;20040;-62
2022/04/28 13:55:56;;;;;;;3.63;2.30;;;;;;;;;;5026627;28;20030;-62
2022/04/28 13:58:22;;;;;;;3.38;2.30;;;;;;;;;;5022791;28;20052;-62
2022/04/28 14:00:50;;;;;;;5.57;2.67;;;;;;;;;;5024282;28;20561;-62
2022/04/28 14:03:21;;;;;;;3.05;2.40;;;;;;;;;;5026933;28;20069;-62
2022/04/28 14:05:47;;;;;;;3.15;2.15;;;;;;;;;;5024641;28;20180;-61
2022/04/28 14:08:13;;;;;;;3.85;2.38;;;;;;;;;;5023193;28;20109;-62
2022/04/28 14:10:39;;;;;;;3.70;2.10;;;;;;;;;;5023650;28;20108;-63
2022/04/28 14:13:04;;;;;;;4.55;2.10;;;;;;;;;;5028245;28;20046;-62
2022/04/28 14:15:29;;;;;;;3.45;2.00;;;;;;;;;;5028241;28;20144;-62
2022/04/28 14:17:55;;;;;;;4.60;2.13;;;;;;;;;;5029474;28;20550;-63
2022/04/28 14:20:20;;;;;;;7.95;2.22;;;;;;;;;;5025666;28;20061;-62
2022/04/28 14:22:47;;;;;;;3.28;2.42;;;;;;;;;;5030418;28;20336;-61
2022/04/28 14:25:12;;;;;;;4.07;2.03;;;;;;;;;;5027093;28;20096;-62
2022/04/28 14:27:38;;;;;;;2.95;2.17;;;;;;;;;;5027759;28;20151;-62
2022/04/28 14:30:06;;;;;;;3.72;1.90;;;;;;;;;;5030773;28;20048;-61
2022/04/28 14:32:32;;;;;;;3.22;2.22;;;;;;;;;;5028016;28;20041;-60
2022/04/28 14:34:58;;;;;;;3.53;2.30;;;;;;;;;;5024345;28;20029;-61
2022/04/28 14:37:23;;;;;;;2.63;1.98;;;;;;;;;;5028130;28;20121;-62
2022/04/28 14:39:49;;;;;;;5.35;2.03;;;;;;;;;;5025548;28;20053;-61
2022/04/28 14:42:15;;;;;;;4.97;2.00;;;;;;;;;;5029096;28;20042;-60
2022/04/28 14:44:41;;;;;;;2.72;2.00;;;;;;;;;;5027253;28;20128;-60
2022/04/28 14:47:07;;;;;;;4.30;2.10;;;;;;;;;;5027317;28;20120;-61
2022/04/28 14:52:27;;;;;;;3.55;2.30;;;;;;;;;;5026109;28;20087;-61
2022/04/28 14:54:57;;;;;;;5.10;2.28;;;;;;;;;;5025725;28;20045;-60
2022/04/28 14:57:24;;;;;;;3.60;2.38;;;;;;;;;;5023596;28;20420;-59
2022/04/28 14:59:50;;;;;;;3.05;1.95;;;;;;;;;;5024395;28;20053;-61
2022/04/28 15:02:15;;;;;;;2.65;2.03;;;;;;;;;;5027175;28;20048;-61
2022/04/28 15:04:41;;;;;;;4.78;1.92;;;;;;;;;;5028168;28;20029;-61
2022/04/28 15:07:06;;;;;;;3.35;2.33;;;;;;;;;;5029223;28;20504;-62
2022/04/28 15:09:32;;;;;;;5.15;2.65;;;;;;;;;;5021178;28;20450;-61
2022/04/28 15:11:58;;;;;;;4.32;2.47;;;;;;;;;;5027731;28;20179;-61
2022/04/28 15:14:23;;;;;;;3.10;2.05;;;;;;;;;;5029009;28;20108;-61
2022/04/28 15:16:49;;;;;;;4.10;2.00;;;;;;;;;;5026379;28;20110;-61
2022/04/28 15:19:15;;;;;;;4.43;2.20;;;;;;;;;;5024547;28;20060;-62
2022/04/28 15:21:41;;;;;;;3.78;2.40;;;;;;;;;;5029059;28;20163;-60
2022/04/28 15:24:08;;;;;;;3.78;2.08;;;;;;;;;;5028986;28;20052;-60
2022/04/28 15:26:35;;;;;;;3.42;2.50;;;;;;;;;;5027470;28;20102;-61
2022/04/28 15:29:01;;;;;;;4.85;2.53;;;;;;;;;;5027633;28;20036;-62
2022/04/28 15:31:34;;;;;;;3.85;2.30;;;;;;;;;;5028032;28;20033;-60